sensor_id;sensor_type;location;lat;lon;timestamp;P1;durP1;ratioP1;P2;durP2;ratioP2
28509;SDS011;15723;55.684;37.928;2022-11-20T00:01:16;30.80;;;16.75;;
28509;SDS011;15723;55.684;37.928;2022-11-20T00:03:44;26.65;;;14.90;;
28509;SDS011;15723;55.684;37.928;2022-11-20T00:06:12;29.80;;;15.55;;
28509;SDS011;15723;55.684;37.928;2022-11-20T00:08:40;27.80;;;15.02;;
28509;SDS011;15723;55.684;37.928;2022-11-20T00:11:12;31.50;;;15.63;;
28509;SDS011;15723;55.684;37.928;2022-11-20T00:13:40;24.23;;;14.95;;
28509;SDS011;15723;55.684;37.928;2022-11-20T00:16:08;27.83;;;15.05;;
28509;SDS011;15723;55.684;37.928;2022-11-20T00:18:36;25.17;;;13.02;;
28509;SDS011;15723;55.684;37.928;2022-11-20T00:21:03;21.63;;;12.55;;
28509;SDS011;15723;55.684;37.928;2022-11-20T00:23:35;27.02;;;15.73;;
28509;SDS011;15723;55.684;37.928;2022-11-20T00:26:05;30.77;;;15.43;;
28509;SDS011;15723;55.684;37.928;2022-11-20T00:28:33;29.30;;;15.52;;
28509;SDS011;15723;55.684;37.928;2022-11-20T00:31:01;29.20;;;15.02;;
28509;SDS011;15723;55.684;37.928;2022-11-20T00:33:31;26.77;;;14.55;;
28509;SDS011;15723;55.684;37.928;2022-11-20T00:36:04;27.33;;;14.88;;
28509;SDS011;15723;55.684;37.928;2022-11-20T00:38:32;26.90;;;15.57;;
28509;SDS011;15723;55.684;37.928;2022-11-20T00:40:59;28.95;;;16.05;;
28509;SDS011;15723;55.684;37.928;2022-11-20T00:43:27;28.73;;;15.88;;
28509;SDS011;15723;55.684;37.928;2022-11-20T00:46:00;28.67;;;15.35;;
28509;SDS011;15723;55.684;37.928;2022-11-20T00:48:28;25.10;;;15.00;;
28509;SDS011;15723;55.684;37.928;2022-11-20T00:50:54;25.23;;;13.88;;
28509;SDS011;15723;55.684;37.928;2022-11-20T00:53:21;28.17;;;14.82;;
28509;SDS011;15723;55.684;37.928;2022-11-20T00:55:59;28.95;;;15.65;;
28509;SDS011;15723;55.684;37.928;2022-11-20T00:58:33;28.02;;;14.68;;
28509;SDS011;15723;55.684;37.928;2022-11-20T01:01:06;26.27;;;14.27;;
28509;SDS011;15723;55.684;37.928;2022-11-20T01:03:33;29.27;;;15.00;;
28509;SDS011;15723;55.684;37.928;2022-11-20T01:06:18;29.17;;;14.65;;
28509;SDS011;15723;55.684;37.928;2022-11-20T01:08:53;28.10;;;14.75;;
28509;SDS011;15723;55.684;37.928;2022-11-20T01:11:22;27.27;;;14.65;;
28509;SDS011;15723;55.684;37.928;2022-11-20T01:13:50;27.98;;;15.57;;
28509;SDS011;15723;55.684;37.928;2022-11-20T01:16:18;30.00;;;14.10;;
28509;SDS011;15723;55.684;37.928;2022-11-20T01:21:19;22.67;;;12.32;;
28509;SDS011;15723;55.684;37.928;2022-11-20T01:23:48;24.90;;;13.90;;
28509;SDS011;15723;55.684;37.928;2022-11-20T01:26:16;23.65;;;14.30;;
28509;SDS011;15723;55.684;37.928;2022-11-20T01:28:44;27.02;;;13.35;;
28509;SDS011;15723;55.684;37.928;2022-11-20T01:31:14;25.88;;;13.23;;
28509;SDS011;15723;55.684;37.928;2022-11-20T01:33:43;18.13;;;10.23;;
28509;SDS011;15723;55.684;37.928;2022-11-20T01:36:10;25.60;;;13.65;;
28509;SDS011;15723;55.684;37.928;2022-11-20T01:38:38;25.17;;;12.52;;
28509;SDS011;15723;55.684;37.928;2022-11-20T01:41:04;24.95;;;13.73;;
28509;SDS011;15723;55.684;37.928;2022-11-20T01:43:32;25.25;;;14.27;;
28509;SDS011;15723;55.684;37.928;2022-11-20T01:48:38;24.88;;;12.95;;
28509;SDS011;15723;55.684;37.928;2022-11-20T01:51:40;21.88;;;12.07;;
28509;SDS011;15723;55.684;37.928;2022-11-20T01:54:09;22.58;;;13.18;;
28509;SDS011;15723;55.684;37.928;2022-11-20T01:56:45;22.73;;;12.77;;
28509;SDS011;15723;55.684;37.928;2022-11-20T01:59:13;25.10;;;12.52;;
28509;SDS011;15723;55.684;37.928;2022-11-20T02:01:43;22.92;;;13.07;;
28509;SDS011;15723;55.684;37.928;2022-11-20T02:04:10;23.50;;;12.85;;
28509;SDS011;15723;55.684;37.928;2022-11-20T02:07:10;30.30;;;15.18;;
28509;SDS011;15723;55.684;37.928;2022-11-20T02:09:33;26.27;;;13.70;;
28509;SDS011;15723;55.684;37.928;2022-11-20T02:11:59;27.20;;;14.45;;
28509;SDS011;15723;55.684;37.928;2022-11-20T02:14:26;22.67;;;13.93;;
28509;SDS011;15723;55.684;37.928;2022-11-20T02:16:53;33.17;;;14.60;;
28509;SDS011;15723;55.684;37.928;2022-11-20T02:19:22;30.85;;;15.10;;
28509;SDS011;15723;55.684;37.928;2022-11-20T02:24:38;27.67;;;14.30;;
28509;SDS011;15723;55.684;37.928;2022-11-20T02:27:09;31.23;;;13.77;;
28509;SDS011;15723;55.684;37.928;2022-11-20T02:29:39;26.88;;;14.25;;
28509;SDS011;15723;55.684;37.928;2022-11-20T02:32:19;29.73;;;15.20;;
28509;SDS011;15723;55.684;37.928;2022-11-20T02:34:56;25.35;;;12.80;;
28509;SDS011;15723;55.684;37.928;2022-11-20T02:37:23;29.27;;;13.30;;
28509;SDS011;15723;55.684;37.928;2022-11-20T02:39:56;27.70;;;13.85;;
28509;SDS011;15723;55.684;37.928;2022-11-20T02:42:22;27.90;;;14.75;;
28509;SDS011;15723;55.684;37.928;2022-11-20T02:44:49;25.95;;;14.90;;
28509;SDS011;15723;55.684;37.928;2022-11-20T02:47:15;25.35;;;13.48;;
28509;SDS011;15723;55.684;37.928;2022-11-20T02:49:41;26.50;;;13.48;;
28509;SDS011;15723;55.684;37.928;2022-11-20T02:52:07;25.52;;;15.00;;
28509;SDS011;15723;55.684;37.928;2022-11-20T02:54:33;24.83;;;13.15;;
28509;SDS011;15723;55.684;37.928;2022-11-20T02:57:00;27.15;;;14.77;;
28509;SDS011;15723;55.684;37.928;2022-11-20T02:59:26;28.17;;;13.85;;
28509;SDS011;15723;55.684;37.928;2022-11-20T03:01:52;25.05;;;13.65;;
28509;SDS011;15723;55.684;37.928;2022-11-20T03:04:18;27.40;;;14.25;;
28509;SDS011;15723;55.684;37.928;2022-11-20T03:06:45;28.00;;;15.68;;
28509;SDS011;15723;55.684;37.928;2022-11-20T03:09:11;31.27;;;15.75;;
28509;SDS011;15723;55.684;37.928;2022-11-20T03:11:38;23.70;;;13.57;;
28509;SDS011;15723;55.684;37.928;2022-11-20T03:14:04;30.23;;;14.32;;
28509;SDS011;15723;55.684;37.928;2022-11-20T03:16:31;29.48;;;15.07;;
28509;SDS011;15723;55.684;37.928;2022-11-20T03:18:58;30.20;;;14.15;;
28509;SDS011;15723;55.684;37.928;2022-11-20T03:21:24;26.77;;;13.52;;
28509;SDS011;15723;55.684;37.928;2022-11-20T03:23:52;24.42;;;13.25;;
28509;SDS011;15723;55.684;37.928;2022-11-20T03:26:20;28.40;;;15.45;;
28509;SDS011;15723;55.684;37.928;2022-11-20T03:28:49;28.60;;;14.18;;
28509;SDS011;15723;55.684;37.928;2022-11-20T03:31:18;30.73;;;15.45;;
28509;SDS011;15723;55.684;37.928;2022-11-20T03:33:47;25.95;;;14.05;;
28509;SDS011;15723;55.684;37.928;2022-11-20T03:36:14;28.42;;;14.63;;
28509;SDS011;15723;55.684;37.928;2022-11-20T03:38:41;25.48;;;13.70;;
28509;SDS011;15723;55.684;37.928;2022-11-20T03:41:15;26.70;;;13.05;;
28509;SDS011;15723;55.684;37.928;2022-11-20T03:43:53;26.15;;;14.02;;
28509;SDS011;15723;55.684;37.928;2022-11-20T03:46:27;27.30;;;13.85;;
28509;SDS011;15723;55.684;37.928;2022-11-20T03:48:54;26.60;;;14.07;;
28509;SDS011;15723;55.684;37.928;2022-11-20T03:51:21;23.85;;;13.77;;
28509;SDS011;15723;55.684;37.928;2022-11-20T03:53:57;30.88;;;13.55;;
28509;SDS011;15723;55.684;37.928;2022-11-20T03:56:27;25.52;;;13.38;;
28509;SDS011;15723;55.684;37.928;2022-11-20T03:58:55;24.13;;;12.98;;
28509;SDS011;15723;55.684;37.928;2022-11-20T04:01:23;27.85;;;14.10;;
28509;SDS011;15723;55.684;37.928;2022-11-20T04:03:54;25.08;;;12.88;;
28509;SDS011;15723;55.684;37.928;2022-11-20T04:06:23;26.45;;;14.00;;
28509;SDS011;15723;55.684;37.928;2022-11-20T04:08:53;26.83;;;13.48;;
28509;SDS011;15723;55.684;37.928;2022-11-20T04:11:22;23.40;;;12.88;;
28509;SDS011;15723;55.684;37.928;2022-11-20T04:13:54;24.10;;;13.52;;
28509;SDS011;15723;55.684;37.928;2022-11-20T04:16:22;27.73;;;13.35;;
28509;SDS011;15723;55.684;37.928;2022-11-20T04:18:56;23.85;;;13.00;;
28509;SDS011;15723;55.684;37.928;2022-11-20T04:21:24;29.52;;;14.80;;
28509;SDS011;15723;55.684;37.928;2022-11-20T04:23:51;28.92;;;14.35;;
28509;SDS011;15723;55.684;37.928;2022-11-20T04:26:21;30.05;;;15.07;;
28509;SDS011;15723;55.684;37.928;2022-11-20T04:28:49;29.02;;;15.50;;
28509;SDS011;15723;55.684;37.928;2022-11-20T04:31:18;31.80;;;15.63;;
28509;SDS011;15723;55.684;37.928;2022-11-20T04:33:46;30.30;;;15.18;;
28509;SDS011;15723;55.684;37.928;2022-11-20T04:38:46;24.60;;;13.88;;
28509;SDS011;15723;55.684;37.928;2022-11-20T04:41:19;27.52;;;14.82;;
28509;SDS011;15723;55.684;37.928;2022-11-20T04:43:47;28.55;;;15.23;;
28509;SDS011;15723;55.684;37.928;2022-11-20T04:46:16;28.55;;;14.20;;
28509;SDS011;15723;55.684;37.928;2022-11-20T04:48:43;26.17;;;13.82;;
28509;SDS011;15723;55.684;37.928;2022-11-20T04:51:09;25.70;;;14.07;;
28509;SDS011;15723;55.684;37.928;2022-11-20T04:53:36;25.77;;;14.57;;
28509;SDS011;15723;55.684;37.928;2022-11-20T04:56:04;24.20;;;13.43;;
28509;SDS011;15723;55.684;37.928;2022-11-20T04:58:32;26.17;;;13.93;;
28509;SDS011;15723;55.684;37.928;2022-11-20T05:01:00;25.60;;;12.90;;
28509;SDS011;15723;55.684;37.928;2022-11-20T05:03:28;24.10;;;13.52;;
28509;SDS011;15723;55.684;37.928;2022-11-20T05:05:55;24.58;;;13.52;;
28509;SDS011;15723;55.684;37.928;2022-11-20T05:08:22;21.08;;;12.63;;
28509;SDS011;15723;55.684;37.928;2022-11-20T05:10:48;21.63;;;12.98;;
28509;SDS011;15723;55.684;37.928;2022-11-20T05:13:14;28.50;;;13.18;;
28509;SDS011;15723;55.684;37.928;2022-11-20T05:15:40;27.70;;;13.95;;
28509;SDS011;15723;55.684;37.928;2022-11-20T05:18:06;27.90;;;13.60;;
28509;SDS011;15723;55.684;37.928;2022-11-20T05:20:33;28.58;;;14.77;;
28509;SDS011;15723;55.684;37.928;2022-11-20T05:23:00;23.75;;;14.10;;
28509;SDS011;15723;55.684;37.928;2022-11-20T05:25:27;26.40;;;13.00;;
28509;SDS011;15723;55.684;37.928;2022-11-20T05:27:53;25.33;;;13.82;;
28509;SDS011;15723;55.684;37.928;2022-11-20T05:30:19;23.65;;;13.27;;
28509;SDS011;15723;55.684;37.928;2022-11-20T05:32:46;29.08;;;13.68;;
28509;SDS011;15723;55.684;37.928;2022-11-20T05:35:12;25.88;;;14.05;;
28509;SDS011;15723;55.684;37.928;2022-11-20T05:37:38;26.00;;;14.00;;
28509;SDS011;15723;55.684;37.928;2022-11-20T05:40:04;27.05;;;14.57;;
28509;SDS011;15723;55.684;37.928;2022-11-20T05:42:31;26.27;;;14.60;;
28509;SDS011;15723;55.684;37.928;2022-11-20T05:44:58;29.17;;;14.77;;
28509;SDS011;15723;55.684;37.928;2022-11-20T05:47:25;27.98;;;15.43;;
28509;SDS011;15723;55.684;37.928;2022-11-20T05:49:57;29.10;;;14.80;;
28509;SDS011;15723;55.684;37.928;2022-11-20T05:52:23;26.40;;;14.38;;
28509;SDS011;15723;55.684;37.928;2022-11-20T05:55:06;28.48;;;15.32;;
28509;SDS011;15723;55.684;37.928;2022-11-20T05:57:32;30.05;;;14.43;;
28509;SDS011;15723;55.684;37.928;2022-11-20T05:59:59;29.00;;;14.13;;
28509;SDS011;15723;55.684;37.928;2022-11-20T06:02:25;29.88;;;15.70;;
28509;SDS011;15723;55.684;37.928;2022-11-20T06:04:52;25.08;;;13.88;;
28509;SDS011;15723;55.684;37.928;2022-11-20T06:07:18;27.85;;;14.90;;
28509;SDS011;15723;55.684;37.928;2022-11-20T06:09:44;26.52;;;15.25;;
28509;SDS011;15723;55.684;37.928;2022-11-20T06:12:10;27.73;;;14.98;;
28509;SDS011;15723;55.684;37.928;2022-11-20T06:14:36;29.30;;;15.15;;
28509;SDS011;15723;55.684;37.928;2022-11-20T06:17:03;24.27;;;13.75;;
28509;SDS011;15723;55.684;37.928;2022-11-20T06:19:29;25.05;;;14.27;;
28509;SDS011;15723;55.684;37.928;2022-11-20T06:21:55;25.48;;;14.57;;
28509;SDS011;15723;55.684;37.928;2022-11-20T06:24:21;28.05;;;14.65;;
28509;SDS011;15723;55.684;37.928;2022-11-20T06:26:48;25.40;;;13.85;;
28509;SDS011;15723;55.684;37.928;2022-11-20T06:29:14;25.65;;;14.75;;
28509;SDS011;15723;55.684;37.928;2022-11-20T06:31:40;24.80;;;14.77;;
28509;SDS011;15723;55.684;37.928;2022-11-20T06:34:08;27.67;;;13.88;;
28509;SDS011;15723;55.684;37.928;2022-11-20T06:36:34;25.58;;;14.65;;
28509;SDS011;15723;55.684;37.928;2022-11-20T06:39:01;27.58;;;14.57;;
28509;SDS011;15723;55.684;37.928;2022-11-20T06:41:27;26.10;;;14.25;;
28509;SDS011;15723;55.684;37.928;2022-11-20T06:43:54;24.52;;;15.40;;
28509;SDS011;15723;55.684;37.928;2022-11-20T06:46:20;27.83;;;15.13;;
28509;SDS011;15723;55.684;37.928;2022-11-20T06:48:47;26.90;;;14.32;;
28509;SDS011;15723;55.684;37.928;2022-11-20T06:51:15;28.02;;;15.00;;
28509;SDS011;15723;55.684;37.928;2022-11-20T06:53:41;25.88;;;14.48;;
28509;SDS011;15723;55.684;37.928;2022-11-20T06:56:07;27.35;;;15.27;;
28509;SDS011;15723;55.684;37.928;2022-11-20T06:58:34;27.40;;;14.48;;
28509;SDS011;15723;55.684;37.928;2022-11-20T07:01:03;26.23;;;15.55;;
28509;SDS011;15723;55.684;37.928;2022-11-20T07:03:31;27.67;;;15.35;;
28509;SDS011;15723;55.684;37.928;2022-11-20T07:05:58;27.63;;;15.43;;
28509;SDS011;15723;55.684;37.928;2022-11-20T07:08:26;25.92;;;14.70;;
28509;SDS011;15723;55.684;37.928;2022-11-20T07:10:56;25.02;;;14.52;;
28509;SDS011;15723;55.684;37.928;2022-11-20T07:13:24;28.77;;;14.93;;
28509;SDS011;15723;55.684;37.928;2022-11-20T07:15:51;27.17;;;15.35;;
28509;SDS011;15723;55.684;37.928;2022-11-20T07:18:17;25.25;;;13.95;;
28509;SDS011;15723;55.684;37.928;2022-11-20T07:20:43;26.67;;;14.32;;
28509;SDS011;15723;55.684;37.928;2022-11-20T07:23:09;26.55;;;14.82;;
28509;SDS011;15723;55.684;37.928;2022-11-20T07:25:35;28.52;;;15.73;;
28509;SDS011;15723;55.684;37.928;2022-11-20T07:28:02;32.72;;;16.50;;
28509;SDS011;15723;55.684;37.928;2022-11-20T07:30:29;30.75;;;16.00;;
28509;SDS011;15723;55.684;37.928;2022-11-20T07:32:56;26.30;;;14.02;;
28509;SDS011;15723;55.684;37.928;2022-11-20T07:35:23;27.85;;;15.10;;
28509;SDS011;15723;55.684;37.928;2022-11-20T07:37:50;24.52;;;13.98;;
28509;SDS011;15723;55.684;37.928;2022-11-20T07:40:17;25.05;;;14.43;;
28509;SDS011;15723;55.684;37.928;2022-11-20T07:42:50;27.77;;;16.60;;
28509;SDS011;15723;55.684;37.928;2022-11-20T07:45:18;31.60;;;17.08;;
28509;SDS011;15723;55.684;37.928;2022-11-20T07:47:44;35.08;;;17.95;;
28509;SDS011;15723;55.684;37.928;2022-11-20T07:50:11;28.10;;;16.33;;
28509;SDS011;15723;55.684;37.928;2022-11-20T07:52:37;31.90;;;16.98;;
28509;SDS011;15723;55.684;37.928;2022-11-20T07:55:04;25.42;;;14.68;;
28509;SDS011;15723;55.684;37.928;2022-11-20T07:57:30;25.35;;;15.27;;
28509;SDS011;15723;55.684;37.928;2022-11-20T07:59:57;26.17;;;14.95;;
28509;SDS011;15723;55.684;37.928;2022-11-20T08:02:23;28.02;;;15.82;;
28509;SDS011;15723;55.684;37.928;2022-11-20T08:04:49;28.08;;;15.00;;
28509;SDS011;15723;55.684;37.928;2022-11-20T08:07:16;25.80;;;15.10;;
28509;SDS011;15723;55.684;37.928;2022-11-20T08:09:42;25.85;;;15.27;;
28509;SDS011;15723;55.684;37.928;2022-11-20T08:12:09;28.85;;;16.00;;
28509;SDS011;15723;55.684;37.928;2022-11-20T08:15:03;28.63;;;16.17;;
28509;SDS011;15723;55.684;37.928;2022-11-20T08:17:30;36.20;;;16.88;;
28509;SDS011;15723;55.684;37.928;2022-11-20T08:19:57;28.98;;;16.15;;
28509;SDS011;15723;55.684;37.928;2022-11-20T08:22:23;24.63;;;13.27;;
28509;SDS011;15723;55.684;37.928;2022-11-20T08:24:50;24.15;;;13.63;;
28509;SDS011;15723;55.684;37.928;2022-11-20T08:27:17;23.08;;;13.43;;
28509;SDS011;15723;55.684;37.928;2022-11-20T08:29:43;25.10;;;14.65;;
28509;SDS011;15723;55.684;37.928;2022-11-20T08:32:09;24.58;;;14.98;;
28509;SDS011;15723;55.684;37.928;2022-11-20T08:34:35;26.67;;;15.55;;
28509;SDS011;15723;55.684;37.928;2022-11-20T08:37:02;25.33;;;15.93;;
28509;SDS011;15723;55.684;37.928;2022-11-20T08:39:28;28.73;;;15.65;;
28509;SDS011;15723;55.684;37.928;2022-11-20T08:41:55;28.02;;;16.27;;
28509;SDS011;15723;55.684;37.928;2022-11-20T08:44:21;29.60;;;17.02;;
28509;SDS011;15723;55.684;37.928;2022-11-20T08:46:47;31.92;;;16.75;;
28509;SDS011;15723;55.684;37.928;2022-11-20T08:49:14;36.25;;;17.48;;
28509;SDS011;15723;55.684;37.928;2022-11-20T08:51:41;33.05;;;17.55;;
28509;SDS011;15723;55.684;37.928;2022-11-20T08:54:08;30.95;;;18.08;;
28509;SDS011;15723;55.684;37.928;2022-11-20T08:56:35;31.73;;;17.92;;
28509;SDS011;15723;55.684;37.928;2022-11-20T08:59:01;32.50;;;18.17;;
28509;SDS011;15723;55.684;37.928;2022-11-20T09:01:28;31.35;;;19.88;;
28509;SDS011;15723;55.684;37.928;2022-11-20T09:03:55;32.22;;;17.92;;
28509;SDS011;15723;55.684;37.928;2022-11-20T09:06:25;32.55;;;18.23;;
28509;SDS011;15723;55.684;37.928;2022-11-20T09:08:52;32.17;;;17.40;;
28509;SDS011;15723;55.684;37.928;2022-11-20T09:11:19;38.85;;;20.83;;
28509;SDS011;15723;55.684;37.928;2022-11-20T09:13:45;41.38;;;22.88;;
28509;SDS011;15723;55.684;37.928;2022-11-20T09:16:12;41.35;;;23.55;;
28509;SDS011;15723;55.684;37.928;2022-11-20T09:18:38;40.83;;;23.10;;
28509;SDS011;15723;55.684;37.928;2022-11-20T09:21:06;43.05;;;21.92;;
28509;SDS011;15723;55.684;37.928;2022-11-20T09:23:36;37.22;;;22.58;;
28509;SDS011;15723;55.684;37.928;2022-11-20T09:26:13;36.58;;;20.70;;
28509;SDS011;15723;55.684;37.928;2022-11-20T09:28:40;36.10;;;20.25;;
28509;SDS011;15723;55.684;37.928;2022-11-20T09:31:07;33.45;;;19.23;;
28509;SDS011;15723;55.684;37.928;2022-11-20T09:33:35;33.45;;;19.05;;
28509;SDS011;15723;55.684;37.928;2022-11-20T09:36:02;32.60;;;19.38;;
28509;SDS011;15723;55.684;37.928;2022-11-20T09:38:28;34.92;;;18.92;;
28509;SDS011;15723;55.684;37.928;2022-11-20T09:41:00;36.40;;;20.52;;
28509;SDS011;15723;55.684;37.928;2022-11-20T09:54:37;42.95;;;21.90;;
28509;SDS011;15723;55.684;37.928;2022-11-20T09:57:17;35.92;;;20.05;;
28509;SDS011;15723;55.684;37.928;2022-11-20T09:59:51;41.83;;;20.35;;
28509;SDS011;15723;55.684;37.928;2022-11-20T10:02:28;37.72;;;20.63;;
28509;SDS011;15723;55.684;37.928;2022-11-20T10:05:22;38.13;;;20.77;;
28509;SDS011;15723;55.684;37.928;2022-11-20T10:14:00;42.90;;;21.02;;
28509;SDS011;15723;55.684;37.928;2022-11-20T10:24:22;44.95;;;23.05;;
28509;SDS011;15723;55.684;37.928;2022-11-20T10:30:06;41.78;;;22.17;;
28509;SDS011;15723;55.684;37.928;2022-11-20T10:32:48;43.38;;;22.00;;
28509;SDS011;15723;55.684;37.928;2022-11-20T10:38:15;41.25;;;21.20;;
28509;SDS011;15723;55.684;37.928;2022-11-20T10:41:05;41.08;;;21.77;;
28509;SDS011;15723;55.684;37.928;2022-11-20T10:43:52;42.92;;;22.92;;
28509;SDS011;15723;55.684;37.928;2022-11-20T10:46:26;45.03;;;23.90;;
28509;SDS011;15723;55.684;37.928;2022-11-20T10:49:04;46.85;;;24.58;;
28509;SDS011;15723;55.684;37.928;2022-11-20T10:51:40;48.05;;;25.05;;
28509;SDS011;15723;55.684;37.928;2022-11-20T10:54:39;44.13;;;25.30;;
28509;SDS011;15723;55.684;37.928;2022-11-20T11:00:15;43.75;;;24.00;;
28509;SDS011;15723;55.684;37.928;2022-11-20T11:02:49;49.17;;;24.40;;
28509;SDS011;15723;55.684;37.928;2022-11-20T11:05:22;48.72;;;25.55;;
28509;SDS011;15723;55.684;37.928;2022-11-20T11:07:55;53.58;;;25.52;;
28509;SDS011;15723;55.684;37.928;2022-11-20T11:10:24;51.72;;;28.45;;
28509;SDS011;15723;55.684;37.928;2022-11-20T11:13:07;54.47;;;26.45;;
28509;SDS011;15723;55.684;37.928;2022-11-20T11:15:44;53.88;;;27.45;;
28509;SDS011;15723;55.684;37.928;2022-11-20T11:18:10;56.13;;;29.45;;
28509;SDS011;15723;55.684;37.928;2022-11-20T11:20:37;59.63;;;30.67;;
28509;SDS011;15723;55.684;37.928;2022-11-20T11:23:04;67.05;;;34.45;;
28509;SDS011;15723;55.684;37.928;2022-11-20T11:25:31;57.67;;;32.78;;
28509;SDS011;15723;55.684;37.928;2022-11-20T11:28:00;62.42;;;31.73;;
28509;SDS011;15723;55.684;37.928;2022-11-20T11:30:45;59.35;;;30.45;;
28509;SDS011;15723;55.684;37.928;2022-11-20T11:33:47;61.35;;;30.92;;
28509;SDS011;15723;55.684;37.928;2022-11-20T11:36:16;57.35;;;29.33;;
28509;SDS011;15723;55.684;37.928;2022-11-20T11:38:51;58.38;;;29.83;;
28509;SDS011;15723;55.684;37.928;2022-11-20T11:41:22;72.32;;;32.47;;
28509;SDS011;15723;55.684;37.928;2022-11-20T11:43:54;66.18;;;31.55;;
28509;SDS011;15723;55.684;37.928;2022-11-20T11:46:53;67.05;;;33.03;;
28509;SDS011;15723;55.684;37.928;2022-11-20T11:49:21;69.80;;;32.60;;
28509;SDS011;15723;55.684;37.928;2022-11-20T11:57:47;68.28;;;32.15;;
28509;SDS011;15723;55.684;37.928;2022-11-20T12:00:23;62.40;;;30.35;;
28509;SDS011;15723;55.684;37.928;2022-11-20T12:08:13;76.93;;;31.13;;
28509;SDS011;15723;55.684;37.928;2022-11-20T12:10:52;74.25;;;34.05;;
28509;SDS011;15723;55.684;37.928;2022-11-20T12:13:48;66.07;;;32.90;;
28509;SDS011;15723;55.684;37.928;2022-11-20T12:16:24;74.65;;;33.35;;
28509;SDS011;15723;55.684;37.928;2022-11-20T12:18:51;79.75;;;36.92;;
28509;SDS011;15723;55.684;37.928;2022-11-20T12:21:19;84.43;;;34.90;;
28509;SDS011;15723;55.684;37.928;2022-11-20T12:24:10;80.32;;;33.97;;
28509;SDS011;15723;55.684;37.928;2022-11-20T12:35:21;81.80;;;33.60;;
28509;SDS011;15723;55.684;37.928;2022-11-20T12:40:41;86.25;;;35.08;;
28509;SDS011;15723;55.684;37.928;2022-11-20T12:43:30;89.10;;;35.78;;
28509;SDS011;15723;55.684;37.928;2022-11-20T12:46:50;79.45;;;35.28;;
28509;SDS011;15723;55.684;37.928;2022-11-20T12:49:48;90.63;;;35.65;;
28509;SDS011;15723;55.684;37.928;2022-11-20T12:52:41;94.45;;;36.00;;
28509;SDS011;15723;55.684;37.928;2022-11-20T12:55:21;85.68;;;36.65;;
28509;SDS011;15723;55.684;37.928;2022-11-20T12:57:51;80.90;;;34.85;;
28509;SDS011;15723;55.684;37.928;2022-11-20T13:00:26;88.43;;;34.03;;
28509;SDS011;15723;55.684;37.928;2022-11-20T13:02:58;82.95;;;33.22;;
28509;SDS011;15723;55.684;37.928;2022-11-20T13:05:59;78.40;;;31.73;;
28509;SDS011;15723;55.684;37.928;2022-11-20T13:08:41;82.40;;;32.13;;
28509;SDS011;15723;55.684;37.928;2022-11-20T13:19:59;77.68;;;36.25;;
28509;SDS011;15723;55.684;37.928;2022-11-20T13:22:29;112.60;;;39.08;;
28509;SDS011;15723;55.684;37.928;2022-11-20T13:25:25;100.38;;;42.17;;
28509;SDS011;15723;55.684;37.928;2022-11-20T13:30:34;97.17;;;40.30;;
28509;SDS011;15723;55.684;37.928;2022-11-20T13:35:36;102.70;;;41.63;;
28509;SDS011;15723;55.684;37.928;2022-11-20T13:38:14;92.38;;;38.50;;
28509;SDS011;15723;55.684;37.928;2022-11-20T13:40:54;95.57;;;39.22;;
28509;SDS011;15723;55.684;37.928;2022-11-20T13:43:33;102.88;;;39.10;;
28509;SDS011;15723;55.684;37.928;2022-11-20T13:46:05;106.18;;;38.70;;
28509;SDS011;15723;55.684;37.928;2022-11-20T13:48:34;107.00;;;41.33;;
28509;SDS011;15723;55.684;37.928;2022-11-20T14:02:22;92.00;;;41.30;;
28509;SDS011;15723;55.684;37.928;2022-11-20T14:04:51;101.57;;;40.70;;
28509;SDS011;15723;55.684;37.928;2022-11-20T14:07:32;91.53;;;39.30;;
28509;SDS011;15723;55.684;37.928;2022-11-20T14:10:18;103.43;;;39.30;;
28509;SDS011;15723;55.684;37.928;2022-11-20T14:12:50;94.13;;;36.35;;
28509;SDS011;15723;55.684;37.928;2022-11-20T14:15:27;92.30;;;36.65;;
28509;SDS011;15723;55.684;37.928;2022-11-20T14:17:55;96.07;;;37.10;;
28509;SDS011;15723;55.684;37.928;2022-11-20T14:20:23;104.68;;;37.97;;
28509;SDS011;15723;55.684;37.928;2022-11-20T14:22:53;102.10;;;37.97;;
28509;SDS011;15723;55.684;37.928;2022-11-20T14:25:21;99.95;;;36.22;;
28509;SDS011;15723;55.684;37.928;2022-11-20T14:27:56;102.03;;;36.15;;
28509;SDS011;15723;55.684;37.928;2022-11-20T14:30:28;93.30;;;38.00;;
28509;SDS011;15723;55.684;37.928;2022-11-20T14:33:02;92.25;;;37.15;;
28509;SDS011;15723;55.684;37.928;2022-11-20T14:35:33;102.55;;;38.17;;
28509;SDS011;15723;55.684;37.928;2022-11-20T14:38:02;90.38;;;36.65;;
28509;SDS011;15723;55.684;37.928;2022-11-20T14:42:57;98.15;;;39.97;;
28509;SDS011;15723;55.684;37.928;2022-11-20T14:45:24;97.57;;;39.10;;
28509;SDS011;15723;55.684;37.928;2022-11-20T14:47:52;89.10;;;38.28;;
28509;SDS011;15723;55.684;37.928;2022-11-20T14:50:25;92.35;;;39.10;;
28509;SDS011;15723;55.684;37.928;2022-11-20T14:52:59;102.90;;;38.42;;
28509;SDS011;15723;55.684;37.928;2022-11-20T14:55:27;96.78;;;38.70;;
28509;SDS011;15723;55.684;37.928;2022-11-20T14:57:59;99.85;;;39.50;;
28509;SDS011;15723;55.684;37.928;2022-11-20T15:00:29;97.32;;;37.30;;
28509;SDS011;15723;55.684;37.928;2022-11-20T15:02:57;96.05;;;38.75;;
28509;SDS011;15723;55.684;37.928;2022-11-20T15:08:14;101.20;;;38.88;;
28509;SDS011;15723;55.684;37.928;2022-11-20T15:10:47;98.60;;;37.67;;
28509;SDS011;15723;55.684;37.928;2022-11-20T15:13:18;97.82;;;38.58;;
28509;SDS011;15723;55.684;37.928;2022-11-20T15:15:46;94.50;;;38.00;;
28509;SDS011;15723;55.684;37.928;2022-11-20T15:18:29;102.65;;;39.00;;
28509;SDS011;15723;55.684;37.928;2022-11-20T15:21:01;110.35;;;41.38;;
28509;SDS011;15723;55.684;37.928;2022-11-20T15:23:30;102.55;;;39.90;;
28509;SDS011;15723;55.684;37.928;2022-11-20T15:25:56;118.47;;;41.63;;
28509;SDS011;15723;55.684;37.928;2022-11-20T15:33:37;114.93;;;41.00;;
28509;SDS011;15723;55.684;37.928;2022-11-20T15:36:03;105.32;;;40.25;;
28509;SDS011;15723;55.684;37.928;2022-11-20T15:38:30;107.50;;;42.13;;
28509;SDS011;15723;55.684;37.928;2022-11-20T15:40:56;111.53;;;44.80;;
28509;SDS011;15723;55.684;37.928;2022-11-20T15:43:23;106.43;;;42.85;;
28509;SDS011;15723;55.684;37.928;2022-11-20T15:45:56;107.75;;;42.35;;
28509;SDS011;15723;55.684;37.928;2022-11-20T15:48:27;111.43;;;41.28;;
28509;SDS011;15723;55.684;37.928;2022-11-20T15:53:39;108.95;;;41.25;;
28509;SDS011;15723;55.684;37.928;2022-11-20T15:56:13;108.97;;;42.67;;
28509;SDS011;15723;55.684;37.928;2022-11-20T15:58:40;105.18;;;41.97;;
28509;SDS011;15723;55.684;37.928;2022-11-20T16:01:14;102.75;;;40.92;;
28509;SDS011;15723;55.684;37.928;2022-11-20T16:03:43;106.70;;;41.70;;
28509;SDS011;15723;55.684;37.928;2022-11-20T16:06:09;113.90;;;43.42;;
28509;SDS011;15723;55.684;37.928;2022-11-20T16:08:35;121.63;;;44.85;;
28509;SDS011;15723;55.684;37.928;2022-11-20T16:11:02;103.13;;;42.90;;
28509;SDS011;15723;55.684;37.928;2022-11-20T16:13:30;110.78;;;44.30;;